TimePDT,TemperatureF,Dew PointF,Humidity,Sea Level PressureIn,VisibilityMPH,Wind Direction,Wind SpeedMPH,Gust SpeedMPH,PrecipitationIn,Events,Conditions,WindDirDegrees,DateUTC
12:53 AM,53.1,42.1,66,29.99,10.0,South,8.1,-,N/A,,Overcast,180,2013-10-01 07:53:00
1:53 AM,51.1,43.0,74,30.00,10.0,South,8.1,-,N/A,,Mostly Cloudy,190,2013-10-01 08:53:00
2:53 AM,48.0,42.1,80,30.00,10.0,East,3.5,-,N/A,,Mostly Cloudy,80,2013-10-01 09:53:00
3:53 AM,48.9,41.0,74,30.00,10.0,East,3.5,-,N/A,,Mostly Cloudy,100,2013-10-01 10:53:00
4:53 AM,51.1,37.9,61,29.99,10.0,South,4.6,-,N/A,,Overcast,190,2013-10-01 11:53:00
5:53 AM,51.1,39.0,63,30.00,10.0,South,8.1,-,N/A,,Overcast,170,2013-10-01 12:53:00
6:53 AM,51.1,39.0,63,30.00,10.0,South,4.6,-,N/A,,Overcast,170,2013-10-01 13:53:00
7:53 AM,51.1,37.9,61,30.01,10.0,South,8.1,-,N/A,,Mostly Cloudy,180,2013-10-01 14:53:00
8:53 AM,55.9,39.0,53,30.01,10.0,SSW,9.2,-,N/A,,Mostly Cloudy,200,2013-10-01 15:53:00
9:53 AM,57.0,37.0,47,30.02,10.0,SSW,10.4,-,N/A,,Mostly Cloudy,210,2013-10-01 16:53:00
10:53 AM,55.0,43.0,64,30.03,10.0,West,8.1,-,0.00,Rain,Light Rain,280,2013-10-01 17:53:00
11:53 AM,55.9,39.9,55,30.03,10.0,WNW,5.8,-,0.00,,Overcast,290,2013-10-01 18:53:00
12:53 PM,57.0,39.9,53,30.02,10.0,South,5.8,-,N/A,,Overcast,170,2013-10-01 19:53:00
1:53 PM,57.9,39.0,49,30.02,10.0,West,9.2,-,N/A,,Overcast,280,2013-10-01 20:53:00
2:53 PM,52.0,44.1,74,30.07,10.0,SSW,12.7,-,0.00,Rain,Light Rain,210,2013-10-01 21:53:00
3:00 PM,51.8,44.6,76,30.06,10.0,SSW,13.8,-,0.00,Rain,Light Rain,210,2013-10-01 22:00:00
3:53 PM,52.0,44.1,74,30.08,6.0,South,11.5,-,0.02,Rain,Light Rain,190,2013-10-01 22:53:00
4:53 PM,50.0,44.1,80,30.11,10.0,South,15.0,-,0.00,,Overcast,180,2013-10-01 23:53:00
5:53 PM,51.1,44.1,77,30.12,10.0,SSW,11.5,-,N/A,,Mostly Cloudy,210,2013-10-02 00:53:00
6:53 PM,50.0,39.9,68,30.13,10.0,South,11.5,-,N/A,,Partly Cloudy,180,2013-10-02 01:53:00
7:53 PM,48.0,39.9,74,30.15,10.0,South,10.4,-,N/A,,Partly Cloudy,190,2013-10-02 02:53:00
8:53 PM,46.9,39.9,77,30.16,10.0,South,9.2,-,N/A,,Clear,180,2013-10-02 03:53:00
9:53 PM,46.9,39.0,74,30.19,10.0,SSW,9.2,-,N/A,,Clear,200,2013-10-02 04:53:00
10:53 PM,46.9,39.0,74,30.19,10.0,South,9.2,-,N/A,,Clear,180,2013-10-02 05:53:00
11:53 PM,46.9,37.9,71,30.19,10.0,SSE,6.9,-,N/A,,Clear,160,2013-10-02 06:53:00